Time;durP1;ratioP1;P1;durP2;ratioP2;P2;SDS_P1;SDS_P2;PMS_P1;PMS_P2;Temp;Humidity;BMP_temperature;BMP_pressure;BME280_temperature;BME280_humidity;BME280_pressure;Samples;Min_cycle;Max_cycle;Signal;HPM_P1;HPM_P2
2023/06/19 00:01:51;;;;;;;9.77;6.97;;;;;;;25.50;55.37;-18710.91;4966093;28;20058;-77
2023/06/19 00:04:16;;;;;;;9.60;7.35;;;;;;;25.43;55.38;-18709.00;4967126;28;20049;-78
2023/06/19 00:06:41;;;;;;;10.48;7.40;;;;;;;25.42;55.64;-18708.88;4966351;28;20050;-78
2023/06/19 00:09:07;;;;;;;9.10;7.07;;;;;;;25.33;56.19;-18706.28;4967282;28;20038;-77
2023/06/19 00:11:32;;;;;;;8.73;7.05;;;;;;;25.29;57.18;-18705.34;4966202;28;20057;-77
2023/06/19 00:13:58;;;;;;;8.80;7.35;;;;;;;25.24;57.42;-18704.00;4968028;28;20125;-77
2023/06/19 00:16:24;;;;;;;8.50;7.05;;;;;;;25.05;58.80;-18698.84;4965498;28;20070;-77
2023/06/19 00:18:50;;;;;;;9.52;7.38;;;;;;;24.98;60.29;-18697.09;4965554;28;20054;-77
2023/06/19 00:21:15;;;;;;;9.82;7.75;;;;;;;24.98;60.54;-18697.22;4966714;28;20047;-77
2023/06/19 00:23:41;;;;;;;10.68;7.63;;;;;;;24.81;61.38;-18692.63;4965562;28;20070;-77
2023/06/19 00:26:06;;;;;;;9.43;6.95;;;;;;;24.83;61.49;-18693.03;4970543;28;20514;-78
2023/06/19 00:28:32;;;;;;;9.40;7.75;;;;;;;24.72;63.48;-18690.31;4965451;28;20093;-77
2023/06/19 00:30:57;;;;;;;9.90;7.28;;;;;;;24.62;65.14;-18687.59;4967675;28;20473;-77
2023/06/19 00:33:23;;;;;;;10.25;7.82;;;;;;;24.45;64.99;-18683.13;4967834;28;20059;-78
2023/06/19 00:35:51;;;;;;;9.52;7.20;;;;;;;24.57;65.64;-18686.25;4969038;28;20135;-77
2023/06/19 00:38:17;;;;;;;8.95;7.43;;;;;;;24.50;65.21;-18684.50;4965131;28;20047;-78
2023/06/19 00:40:42;;;;;;;9.20;7.10;;;;;;;24.61;64.94;-18687.34;4966976;28;20094;-77
2023/06/19 00:43:07;;;;;;;11.35;6.97;;;;;;;24.58;65.49;-18686.53;4980170;28;20042;-79
2023/06/19 00:45:33;;;;;;;8.60;7.10;;;;;;;24.83;64.61;-18693.16;4966470;28;20053;-78
2023/06/19 00:47:59;;;;;;;8.65;7.10;;;;;;;24.85;64.25;-18693.56;4965511;28;20038;-77
2023/06/19 00:50:25;;;;;;;8.35;6.47;;;;;;;24.78;64.81;-18691.81;4965505;28;20983;-77
2023/06/19 00:52:51;;;;;;;9.45;7.07;;;;;;;24.79;65.34;-18691.94;4965254;28;20066;-77
2023/06/19 00:55:17;;;;;;;9.25;7.00;;;;;;;24.85;65.98;-18693.69;4966283;28;20034;-77
2023/06/19 00:57:46;;;;;;;10.65;6.38;;;;;;;24.89;65.98;-18694.66;4978647;28;20042;-77
2023/06/19 01:00:14;;;;;;;10.00;6.40;;;;;;;24.94;65.21;-18696.00;4964170;28;20570;-77
2023/06/19 01:02:40;;;;;;;7.55;5.82;;;;;;;24.91;65.75;-18695.31;4965040;28;20161;-78
2023/06/19 01:05:06;;;;;;;8.57;6.10;;;;;;;24.96;66.05;-18696.69;4965657;28;20568;-78
2023/06/19 01:07:40;;;;;;;7.45;5.35;;;;;;;25.07;66.23;-18699.38;4964456;28;20058;-78
2023/06/19 01:10:09;;;;;;;10.98;5.60;;;;;;;25.13;65.21;-18701.00;4965517;28;20130;-78
2023/06/19 01:12:37;;;;;;;;;;;;;;;25.12;66.03;-18700.75;4966954;28;20047;-78
2023/06/19 01:15:05;;;;;;;7.40;5.88;;;;;;;24.92;67.68;-18695.59;4966451;28;19922;-79
2023/06/19 01:17:31;;;;;;;8.25;5.43;;;;;;;24.88;67.82;-18694.50;4984765;28;20117;-77
2023/06/19 01:19:58;;;;;;;7.82;5.38;;;;;;;25.04;66.98;-18698.56;4964201;28;20047;-77
2023/06/19 01:22:29;;;;;;;7.75;5.43;;;;;;;25.07;67.20;-18699.53;4963631;28;20387;-78
2023/06/19 01:24:54;;;;;;;7.88;5.38;;;;;;;25.06;67.39;-18699.25;4967226;28;20528;-78
2023/06/19 01:27:21;;;;;;;6.38;5.50;;;;;;;25.18;67.02;-18702.38;4965575;28;20051;-78
2023/06/19 01:29:49;;;;;;;11.35;5.60;;;;;;;25.21;65.99;-18703.19;4963404;28;20046;-77
2023/06/19 01:32:25;;;;;;;;;;;;;;;25.18;65.96;-18702.50;4980680;28;20046;-78
2023/06/19 01:34:54;;;;;;;9.48;6.15;;;;;;;25.11;68.32;-18700.47;4967312;28;19925;-78
2023/06/19 01:37:20;;;;;;;8.35;5.35;;;;;;;25.13;67.50;-18701.00;4964340;28;20106;-78
2023/06/19 01:39:46;;;;;;;8.23;5.20;;;;;;;25.07;67.33;-18699.53;4981849;28;20043;-78
2023/06/19 01:42:14;;;;;;;7.00;5.57;;;;;;;25.06;68.09;-18699.13;4965248;28;20566;-77
2023/06/19 01:44:40;;;;;;;6.93;5.22;;;;;;;25.11;67.91;-18700.47;4979654;28;20059;-78
2023/06/19 01:47:10;;;;;;;6.68;5.20;;;;;;;24.96;68.87;-18696.69;4970765;28;20138;-77
2023/06/19 01:49:36;;;;;;;8.35;5.78;;;;;;;24.95;69.11;-18696.41;4966163;28;20050;-77
2023/06/19 01:52:01;;;;;;;8.90;5.85;;;;;;;24.96;69.70;-18696.69;4967544;28;20038;-77
2023/06/19 01:54:27;;;;;;;9.82;5.50;;;;;;;25.02;68.58;-18698.16;4968701;28;20043;-77
2023/06/19 01:56:53;;;;;;;7.50;5.55;;;;;;;24.90;70.02;-18694.91;4968071;28;20043;-77
2023/06/19 01:59:18;;;;;;;7.85;5.38;;;;;;;24.92;70.67;-18695.59;4970470;28;20034;-77
2023/06/19 02:01:43;;;;;;;8.90;5.40;;;;;;;24.87;70.66;-18694.09;4975167;28;20505;-77
2023/06/19 02:04:09;;;;;;;7.38;5.80;;;;;;;24.86;71.35;-18693.97;4967202;28;20046;-78
2023/06/19 02:06:34;;;;;;;6.80;5.15;;;;;;;24.98;69.59;-18697.09;4968055;28;20054;-78
2023/06/19 02:09:00;;;;;;;8.65;5.60;;;;;;;24.91;70.06;-18695.31;4971793;28;20058;-79
2023/06/19 02:11:25;;;;;;;8.55;6.30;;;;;;;24.84;71.04;-18693.28;4968029;28;20387;-77
2023/06/19 02:13:50;;;;;;;8.93;6.13;;;;;;;24.73;73.17;-18690.44;4968415;28;20082;-78
2023/06/19 02:16:16;;;;;;;10.02;5.80;;;;;;;24.63;73.33;-18687.75;4980157;28;20041;-78
2023/06/19 02:18:41;;;;;;;8.48;6.10;;;;;;;24.52;74.26;-18684.91;4967667;28;20598;-77
2023/06/19 02:21:06;;;;;;;7.60;5.30;;;;;;;24.53;73.52;-18685.31;4970985;28;20043;-77
2023/06/19 02:23:32;;;;;;;6.28;4.97;;;;;;;24.39;73.78;-18681.50;4971353;28;20041;-78
2023/06/19 02:25:57;;;;;;;6.35;5.28;;;;;;;24.46;71.72;-18683.41;4974120;28;20071;-78
2023/06/19 02:28:23;;;;;;;6.95;4.70;;;;;;;24.51;71.11;-18684.63;4968804;28;20051;-78
2023/06/19 02:30:48;;;;;;;7.05;4.80;;;;;;;24.47;71.36;-18683.69;4967523;28;20159;-77
2023/06/19 02:33:13;;;;;;;6.78;4.45;;;;;;;24.39;72.20;-18681.50;4967259;28;20130;-78
2023/06/19 02:35:41;;;;;;;6.57;4.80;;;;;;;24.45;71.58;-18683.13;4967749;28;20042;-77
2023/06/19 02:38:07;;;;;;;6.97;4.97;;;;;;;24.39;71.87;-18681.50;4968114;28;20651;-77
2023/06/19 02:40:32;;;;;;;8.05;4.90;;;;;;;24.36;72.22;-18680.69;4967920;28;20081;-77
2023/06/19 02:42:57;;;;;;;7.05;5.20;;;;;;;24.41;72.44;-18682.03;4968945;28;20051;-76
2023/06/19 02:45:23;;;;;;;8.23;5.05;;;;;;;24.38;72.79;-18681.09;4983938;28;20075;-77
2023/06/19 02:47:50;;;;;;;5.57;4.45;;;;;;;24.42;74.29;-18682.31;4967748;28;20144;-78
2023/06/19 02:50:15;;;;;;;7.03;4.82;;;;;;;24.36;75.68;-18680.69;4967577;28;20102;-78
2023/06/19 02:52:40;;;;;;;5.93;4.43;;;;;;;24.37;76.10;-18680.97;4968165;28;20470;-78
2023/06/19 02:55:07;;;;;;;6.70;4.53;;;;;;;24.34;78.35;-18680.16;4969366;28;20050;-77
2023/06/19 02:57:32;;;;;;;6.50;4.55;;;;;;;24.23;80.26;-18677.16;4969254;28;20049;-77
2023/06/19 02:59:57;;;;;;;8.35;3.90;;;;;;;24.13;85.65;-18674.59;4972440;28;20054;-77
2023/06/19 03:02:23;;;;;;;6.47;3.92;;;;;;;24.26;85.10;-18678.13;4973315;28;20053;-77
2023/06/19 03:04:49;;;;;;;5.55;3.58;;;;;;;24.36;84.48;-18680.69;4970007;28;20042;-76
2023/06/19 03:07:14;;;;;;;5.25;3.53;;;;;;;24.25;85.24;-18677.72;4972238;28;20437;-77
2023/06/19 03:09:40;;;;;;;5.82;4.00;;;;;;;24.32;84.74;-18679.75;4971779;28;20039;-77
2023/06/19 03:12:06;;;;;;;5.47;3.42;;;;;;;24.31;85.23;-18679.34;4972743;28;20058;-77
2023/06/19 03:14:31;;;;;;;5.55;3.83;;;;;;;24.32;85.11;-18679.59;4971912;28;20047;-77
2023/06/19 03:16:57;;;;;;;6.60;3.85;;;;;;;24.30;85.74;-18679.06;4974803;28;21288;-77
2023/06/19 03:19:22;;;;;;;6.25;4.40;;;;;;;24.14;87.51;-18674.88;4970420;28;20391;-76
2023/06/19 03:21:47;;;;;;;5.30;3.95;;;;;;;24.19;87.85;-18676.09;4970905;28;20153;-77
2023/06/19 03:24:13;;;;;;;8.05;4.13;;;;;;;24.20;87.21;-18676.34;4971085;28;20058;-77
2023/06/19 03:26:39;;;;;;;6.15;3.55;;;;;;;24.17;87.80;-18675.53;4968947;28;20054;-77
2023/06/19 03:29:04;;;;;;;6.43;4.00;;;;;;;24.21;88.04;-18676.63;4968614;28;20093;-77
2023/06/19 03:31:31;;;;;;;6.55;4.53;;;;;;;24.25;87.27;-18677.72;4984258;28;20047;-77
2023/06/19 03:33:56;;;;;;;5.88;4.13;;;;;;;24.09;86.57;-18673.66;4971463;28;20707;-77
2023/06/19 03:36:22;;;;;;;5.90;4.03;;;;;;;23.85;89.67;-18667.13;4970865;28;20043;-77
2023/06/19 03:38:48;;;;;;;6.53;4.38;;;;;;;23.91;89.24;-18668.78;4968879;28;20407;-76
2023/06/19 03:41:13;;;;;;;6.53;4.30;;;;;;;23.85;90.43;-18667.28;4969686;28;20070;-77
2023/06/19 03:43:39;;;;;;;7.05;4.90;;;;;;;23.73;91.90;-18664.03;4968572;28;20047;-76
2023/06/19 03:46:04;;;;;;;6.25;4.03;;;;;;;23.69;92.59;-18662.81;4970484;28;20170;-77
2023/06/19 03:48:30;;;;;;;6.57;4.57;;;;;;;23.73;92.89;-18663.88;4968576;28;20055;-77
2023/06/19 03:50:55;;;;;;;6.18;4.30;;;;;;;23.84;92.48;-18666.88;4971587;28;20473;-78
2023/06/19 03:53:21;;;;;;;5.32;4.03;;;;;;;23.72;93.15;-18663.75;4969526;28;20038;-78
2023/06/19 03:55:46;;;;;;;7.97;4.15;;;;;;;23.69;94.27;-18662.81;4971669;28;20039;-77
2023/06/19 03:58:12;;;;;;;6.22;3.75;;;;;;;23.65;95.36;-18662.00;4968396;28;20104;-76
2023/06/19 04:00:37;;;;;;;6.93;4.53;;;;;;;23.48;97.69;-18657.25;4969043;28;20050;-78
2023/06/19 04:03:03;;;;;;;5.60;4.00;;;;;;;23.45;99.10;-18656.41;4970101;28;20043;-77
2023/06/19 04:05:28;;;;;;;5.78;3.65;;;;;;;23.42;99.26;-18655.75;4971221;28;20533;-78
2023/06/19 04:07:53;;;;;;;5.47;4.10;;;;;;;23.38;100.00;-18654.78;4976401;28;20102;-77
2023/06/19 04:10:19;;;;;;;5.82;3.70;;;;;;;23.26;100.00;-18651.41;4968319;28;20468;-79
2023/06/19 04:12:45;;;;;;;6.90;3.75;;;;;;;23.21;100.00;-18650.19;4966953;28;20062;-77
2023/06/19 04:15:10;;;;;;;6.35;4.13;;;;;;;23.12;100.00;-18647.75;4970232;28;20062;-78
2023/06/19 04:17:36;;;;;;;7.72;4.18;;;;;;;23.16;100.00;-18648.97;4971722;28;20580;-77
2023/06/19 04:20:07;;;;;;;5.82;3.72;;;;;;;23.07;100.00;-18646.53;4969535;28;20054;-77
2023/06/19 04:22:32;;;;;;;6.05;3.85;;;;;;;22.98;100.00;-18644.22;4958481;28;20047;-78
2023/06/19 04:24:57;;;;;;;8.70;4.47;;;;;;;22.99;100.00;-18644.34;4970041;28;20407;-78
2023/06/19 04:27:22;;;;;;;7.03;4.43;;;;;;;23.00;100.00;-18644.63;4970602;28;21688;-77
2023/06/19 04:29:48;;;;;;;5.45;4.07;;;;;;;23.01;100.00;-18644.75;4968200;28;20050;-76
2023/06/19 04:32:13;;;;;;;6.78;4.28;;;;;;;22.93;100.00;-18642.84;4967402;28;20066;-78
2023/06/19 04:34:39;;;;;;;6.45;3.92;;;;;;;22.79;100.00;-18639.06;4969282;28;20039;-79
2023/06/19 04:37:05;;;;;;;7.55;4.13;;;;;;;22.81;100.00;-18639.59;4965501;28;20043;-77
2023/06/19 04:39:30;;;;;;;5.68;3.80;;;;;;;22.77;100.00;-18638.38;4966892;28;20852;-77
2023/06/19 04:41:55;;;;;;;7.15;3.90;;;;;;;22.78;100.00;-18638.66;4968255;28;20046;-77
2023/06/19 04:44:21;;;;;;;6.05;3.83;;;;;;;22.72;100.00;-18637.28;4968210;28;20042;-77
2023/06/19 04:46:46;;;;;;;5.60;3.47;;;;;;;22.76;100.00;-18638.25;4967527;28;20159;-77
2023/06/19 04:49:12;;;;;;;6.00;3.67;;;;;;;22.80;100.00;-18639.31;4968508;28;20054;-77
2023/06/19 04:51:38;;;;;;;6.15;3.38;;;;;;;22.65;100.00;-18635.25;4968550;28;20039;-77
2023/06/19 04:54:03;;;;;;;5.57;3.95;;;;;;;22.56;100.00;-18632.81;4970392;28;20042;-77
2023/06/19 04:56:29;;;;;;;6.28;3.67;;;;;;;22.70;100.00;-18636.59;4966250;28;20050;-77
2023/06/19 04:58:59;;;;;;;6.05;3.70;;;;;;;22.63;100.00;-18634.84;4967192;28;20050;-77
2023/06/19 05:01:30;;;;;;;5.00;3.50;;;;;;;22.72;100.00;-18637.28;4967036;28;20050;-77
2023/06/19 05:03:56;;;;;;;5.07;2.65;;;;;;;22.55;100.00;-18632.53;4969627;28;20966;-77
2023/06/19 05:06:24;;;;;;;6.90;3.30;;;;;;;22.52;100.00;-18632.00;4966406;28;20076;-77
2023/06/19 05:08:50;;;;;;;5.00;3.37;;;;;;;22.61;100.00;-18634.16;4968357;28;20110;-77
2023/06/19 05:11:15;;;;;;;6.80;4.05;;;;;;;22.65;100.00;-18635.38;4967869;28;20361;-76
2023/06/19 05:13:40;;;;;;;7.07;3.90;;;;;;;22.72;100.00;-18637.16;4968032;28;20055;-77
2023/06/19 05:16:06;;;;;;;7.35;4.60;;;;;;;22.73;100.00;-18637.56;4983812;28;20049;-76
2023/06/19 05:18:31;;;;;;;6.97;3.83;;;;;;;22.60;100.00;-18634.03;4970628;28;20143;-77
2023/06/19 05:21:01;;;;;;;7.15;4.28;;;;;;;22.51;100.00;-18631.59;4966168;28;20562;-77
2023/06/19 05:23:27;;;;;;;7.20;4.18;;;;;;;22.83;100.00;-18640.00;4965494;28;20057;-77
2023/06/19 05:25:52;;;;;;;6.50;4.10;;;;;;;22.50;100.00;-18631.44;4967837;28;20043;-77
2023/06/19 05:28:17;;;;;;;5.75;3.75;;;;;;;22.50;100.00;-18631.31;4971733;28;20140;-77
2023/06/19 05:30:43;;;;;;;6.18;4.18;;;;;;;22.47;100.00;-18630.63;4967959;28;20093;-77
2023/06/19 05:33:09;;;;;;;7.35;3.67;;;;;;;22.60;100.00;-18633.91;4969296;28;20045;-77
2023/06/19 05:35:34;;;;;;;6.80;4.47;;;;;;;22.74;100.00;-18637.69;4968934;28;20046;-77
2023/06/19 05:38:00;;;;;;;5.43;3.80;;;;;;;22.75;100.00;-18638.09;4965776;28;20058;-77
2023/06/19 05:40:25;;;;;;;5.85;3.63;;;;;;;22.63;100.00;-18634.84;4965759;28;20153;-78
2023/06/19 05:42:50;;;;;;;6.15;3.72;;;;;;;22.59;100.00;-18633.75;4985288;28;20073;-78
2023/06/19 05:45:16;;;;;;;5.63;3.80;;;;;;;22.62;100.00;-18634.44;4969005;28;20082;-77
2023/06/19 05:47:41;;;;;;;8.20;4.10;;;;;;;22.64;100.00;-18634.97;4967127;28;20125;-77
2023/06/19 05:50:07;;;;;;;7.45;4.57;;;;;;;22.60;100.00;-18634.03;4968669;28;20043;-77
2023/06/19 05:52:32;;;;;;;5.95;4.03;;;;;;;22.60;100.00;-18634.03;4968439;28;20630;-77
2023/06/19 05:54:58;;;;;;;7.70;4.13;;;;;;;22.49;100.00;-18631.03;4968359;28;20070;-77
2023/06/19 05:57:23;;;;;;;6.32;4.32;;;;;;;22.51;100.00;-18631.59;4968337;28;20230;-77
2023/06/19 05:59:50;;;;;;;6.40;4.18;;;;;;;22.77;100.00;-18638.38;4968216;28;20077;-77
2023/06/19 06:02:18;;;;;;;7.30;4.93;;;;;;;22.83;100.00;-18640.13;4969003;28;20068;-77
2023/06/19 06:04:44;;;;;;;9.13;4.40;;;;;;;22.92;100.00;-18642.59;4966472;28;20039;-77
2023/06/19 06:07:09;;;;;;;7.78;4.50;;;;;;;22.94;100.00;-18643.13;4968403;28;20101;-77
2023/06/19 06:09:34;;;;;;;8.00;4.57;;;;;;;23.06;100.00;-18646.13;4972164;28;20090;-77
2023/06/19 06:12:00;;;;;;;7.90;5.03;;;;;;;23.10;100.00;-18647.19;4975881;28;20043;-77
2023/06/19 06:14:26;;;;;;;7.95;5.03;;;;;;;23.10;100.00;-18647.34;4976272;28;20450;-77
2023/06/19 06:16:52;;;;;;;6.68;4.60;;;;;;;23.06;100.00;-18646.13;4972964;28;20611;-77
2023/06/19 06:19:19;;;;;;;6.95;4.35;;;;;;;23.26;100.00;-18651.41;4970906;28;20062;-78
2023/06/19 06:21:45;;;;;;;9.48;4.22;;;;;;;23.22;100.00;-18650.31;4973352;28;20042;-77
2023/06/19 06:24:10;;;;;;;6.97;4.50;;;;;;;23.10;100.00;-18647.34;4969909;28;20137;-77
2023/06/19 06:26:36;;;;;;;8.23;4.78;;;;;;;22.93;100.00;-18642.72;4970911;28;20055;-77
2023/06/19 06:29:02;;;;;;;6.70;4.45;;;;;;;23.12;100.00;-18647.88;4971259;28;20050;-78
2023/06/19 06:31:27;;;;;;;6.22;4.35;;;;;;;23.09;100.00;-18646.94;4971200;28;20110;-77
2023/06/19 06:33:52;;;;;;;6.88;4.78;;;;;;;23.02;100.00;-18645.16;4972767;28;20054;-77
2023/06/19 06:36:18;;;;;;;7.25;4.10;;;;;;;23.07;100.00;-18646.38;4971222;28;20062;-77
2023/06/19 06:38:43;;;;;;;7.05;4.45;;;;;;;23.16;100.00;-18648.81;4970545;28;20038;-77
2023/06/19 06:41:09;;;;;;;7.10;4.45;;;;;;;22.70;100.00;-18636.59;4970901;28;20486;-77
2023/06/19 06:43:34;;;;;;;7.22;4.60;;;;;;;22.82;100.00;-18639.88;4970493;28;20035;-77
2023/06/19 06:46:00;;;;;;;7.13;4.28;;;;;;;22.66;100.00;-18635.66;4965170;28;20057;-77
2023/06/19 06:48:25;;;;;;;9.88;5.40;;;;;;;22.86;100.00;-18640.94;4971885;28;20102;-77
2023/06/19 06:50:58;;;;;;;7.15;4.90;;;;;;;22.89;100.00;-18641.63;4970688;28;20070;-77
2023/06/19 06:53:25;;;;;;;6.93;4.72;;;;;;;22.92;100.00;-18642.44;4970136;28;20054;-78
2023/06/19 06:55:50;;;;;;;6.68;4.80;;;;;;;23.08;100.00;-18646.66;4973399;28;20051;-77
2023/06/19 06:58:17;;;;;;;6.15;4.18;;;;;;;23.08;100.00;-18646.66;4970939;28;20081;-77
2023/06/19 07:00:43;;;;;;;7.20;5.20;;;;;;;23.07;100.00;-18646.38;4972531;28;20045;-78
2023/06/19 07:03:08;;;;;;;8.40;4.60;;;;;;;23.25;100.00;-18651.13;4973093;28;20271;-77
2023/06/19 07:05:33;;;;;;;7.45;4.82;;;;;;;23.24;100.00;-18651.00;4970736;28;20122;-77
2023/06/19 07:07:59;;;;;;;7.28;5.32;;;;;;;23.51;100.00;-18658.19;4974512;28;20121;-77
2023/06/19 07:10:24;;;;;;;8.02;4.97;;;;;;;23.06;100.00;-18646.25;4971588;28;20257;-77
2023/06/19 07:12:51;;;;;;;11.48;5.68;;;;;;;23.13;100.00;-18648.00;4973515;28;20047;-77
2023/06/19 07:15:16;;;;;;;8.40;5.65;;;;;;;23.30;100.00;-18652.63;4966992;28;20585;-78
2023/06/19 07:17:43;;;;;;;8.23;5.80;;;;;;;23.44;100.00;-18656.28;4971587;28;20154;-77
2023/06/19 07:20:09;;;;;;;8.27;6.05;;;;;;;23.34;100.00;-18653.72;4969512;28;20047;-77
2023/06/19 07:22:35;;;;;;;7.25;5.97;;;;;;;23.45;100.00;-18656.41;4971800;28;20050;-77
2023/06/19 07:25:01;;;;;;;7.75;5.70;;;;;;;23.32;100.00;-18653.03;4973646;28;20042;-77
2023/06/19 07:27:27;;;;;;;8.27;5.32;;;;;;;23.45;100.00;-18656.41;4969633;28;20081;-78
2023/06/19 07:29:53;;;;;;;7.20;5.30;;;;;;;23.50;100.00;-18657.78;4968637;28;20108;-77
2023/06/19 07:32:19;;;;;;;8.38;5.60;;;;;;;23.54;100.00;-18658.88;4969600;28;20050;-78
2023/06/19 07:34:45;;;;;;;6.43;4.88;;;;;;;23.52;100.00;-18658.47;4968947;28;20046;-77
2023/06/19 07:37:17;;;;;;;8.48;4.97;;;;;;;23.34;100.00;-18653.72;4967243;28;20065;-77
2023/06/19 07:39:44;;;;;;;6.88;5.45;;;;;;;23.14;100.00;-18648.41;4970222;28;20039;-78
2023/06/19 07:42:10;;;;;;;6.78;4.85;;;;;;;23.19;100.00;-18649.78;4972040;28;20061;-77
2023/06/19 07:44:36;;;;;;;8.27;4.45;;;;;;;23.36;100.00;-18654.13;4968902;28;20034;-77
2023/06/19 07:47:01;;;;;;;9.70;4.95;;;;;;;23.31;100.00;-18652.91;4968227;28;20401;-78
2023/06/19 07:49:26;;;;;;;7.63;4.50;;;;;;;23.20;100.00;-18649.91;4996048;23;20054;-79
2023/06/19 07:51:52;;;;;;;7.32;5.07;;;;;;;23.19;100.00;-18649.66;4959869;28;20498;-76
2023/06/19 07:54:17;;;;;;;5.90;4.63;;;;;;;23.23;100.00;-18650.72;4958836;28;20070;-77
2023/06/19 07:56:42;;;;;;;6.60;4.50;;;;;;;23.22;100.00;-18650.31;4959941;28;20536;-77
2023/06/19 07:59:08;;;;;;;5.63;4.40;;;;;;;23.27;100.00;-18651.81;4959351;28;20114;-78
2023/06/19 08:01:33;;;;;;;7.38;4.45;;;;;;;23.23;100.00;-18650.72;4964866;28;20043;-79
2023/06/19 08:03:58;;;;;;;6.25;4.80;;;;;;;23.26;100.00;-18651.41;4950882;28;20328;-78
2023/06/19 08:06:24;;;;;;;7.10;4.63;;;;;;;23.26;100.00;-18651.41;4964851;28;20082;-78
2023/06/19 08:08:49;;;;;;;9.40;4.20;;;;;;;23.21;100.00;-18650.19;4947058;28;20569;-78
2023/06/19 08:11:14;;;;;;;6.32;5.22;;;;;;;23.27;100.00;-18651.81;4949393;28;20102;-77
2023/06/19 08:13:40;;;;;;;5.82;4.75;;;;;;;23.30;100.00;-18652.50;4948797;28;20050;-77
2023/06/19 08:16:06;;;;;;;9.30;5.20;;;;;;;23.40;100.00;-18655.22;4963605;28;20475;-78
2023/06/19 08:18:32;;;;;;;6.65;4.38;;;;;;;23.41;100.00;-18655.47;4948089;28;20062;-78
2023/06/19 08:20:59;;;;;;;9.15;4.22;;;;;;;23.38;100.00;-18654.78;4951286;28;20721;-78
2023/06/19 08:23:24;;;;;;;8.13;4.45;;;;;;;23.51;100.00;-18658.19;4964660;28;20138;-77
2023/06/19 08:25:50;;;;;;;7.43;4.35;;;;;;;23.50;100.00;-18657.91;4949104;28;20102;-78
2023/06/19 08:28:17;;;;;;;8.60;4.00;;;;;;;23.68;100.00;-18662.53;4948551;28;20159;-79
2023/06/19 08:30:44;;;;;;;7.00;4.70;;;;;;;23.82;100.00;-18666.31;4948954;28;20046;-77
2023/06/19 08:33:10;;;;;;;6.85;3.65;;;;;;;23.75;100.00;-18664.44;4964571;28;20071;-77
2023/06/19 08:35:35;;;;;;;6.68;4.03;;;;;;;23.82;100.00;-18666.31;4948820;28;20086;-78
2023/06/19 08:38:00;;;;;;;7.53;4.07;;;;;;;23.90;100.00;-18668.50;4949310;28;20071;-78
2023/06/19 08:40:26;;;;;;;5.95;3.65;;;;;;;24.04;100.00;-18672.28;4946196;28;20106;-76
2023/06/19 08:42:52;;;;;;;5.63;3.45;;;;;;;24.14;100.00;-18674.72;4948466;28;20065;-77
2023/06/19 08:45:20;;;;;;;8.32;3.92;;;;;;;24.12;100.00;-18674.19;4949029;28;20047;-77
2023/06/19 08:47:49;;;;;;;5.47;4.05;;;;;;;23.97;100.00;-18670.41;4947978;28;20047;-78
2023/06/19 08:50:16;;;;;;;6.65;4.05;;;;;;;24.02;100.00;-18671.63;4948411;28;20049;-79
2023/06/19 08:52:41;;;;;;;5.32;3.72;;;;;;;24.10;100.00;-18673.91;4948686;28;20073;-78
2023/06/19 08:55:07;;;;;;;6.18;3.95;;;;;;;24.16;100.00;-18675.41;4949309;28;20469;-78
2023/06/19 08:57:34;;;;;;;5.80;3.60;;;;;;;24.01;100.00;-18671.47;4948899;28;20050;-79
2023/06/19 09:00:00;;;;;;;5.90;3.20;;;;;;;24.24;100.00;-18677.56;4947438;28;20039;-77
2023/06/19 09:02:35;;;;;;;4.75;3.33;;;;;;;24.29;100.00;-18678.78;4948211;28;20074;-78
2023/06/19 09:05:15;;;;;;;8.07;3.75;;;;;;;24.17;100.00;-18675.53;4949448;28;20039;-78
2023/06/19 09:07:41;;;;;;;6.55;3.15;;;;;;;24.30;100.00;-18679.06;4961959;28;20058;-78
2023/06/19 09:10:18;;;;;;;5.45;3.13;;;;;;;24.39;100.00;-18681.38;4948738;28;20142;-78
2023/06/19 09:12:55;;;;;;;5.38;3.75;;;;;;;24.35;100.00;-18680.41;4976121;28;20077;-79
2023/06/19 09:15:21;;;;;;;4.00;2.88;;;;;;;24.54;100.00;-18685.56;4964321;28;20130;-77
2023/06/19 09:17:46;;;;;;;4.85;3.58;;;;;;;24.54;100.00;-18685.56;4963781;28;20149;-76
2023/06/19 09:20:11;;;;;;;5.72;3.40;;;;;;;24.49;100.00;-18684.22;4947995;28;20517;-77
2023/06/19 09:22:37;;;;;;;4.93;3.55;;;;;;;24.79;100.00;-18692.06;4947802;28;20395;-78
2023/06/19 09:25:03;;;;;;;8.00;3.15;;;;;;;25.07;100.00;-18699.38;4950553;28;20402;-77
2023/06/19 09:27:33;;;;;;;6.05;4.00;;;;;;;24.96;100.00;-18696.69;4947814;28;20054;-78
2023/06/19 09:29:58;;;;;;;4.88;3.67;;;;;;;25.09;100.00;-18700.06;4949262;28;20043;-77
2023/06/19 09:32:25;;;;;;;6.65;3.45;;;;;;;25.05;100.00;-18698.84;4948871;28;21332;-78
2023/06/19 09:34:53;;;;;;;5.88;3.35;;;;;;;25.17;100.00;-18702.22;4949851;28;20051;-77
2023/06/19 09:37:25;;;;;;;6.60;3.63;;;;;;;25.08;100.00;-18699.78;4948250;28;20043;-77
2023/06/19 09:39:57;;;;;;;6.57;3.78;;;;;;;25.26;100.00;-18704.53;4964095;28;20437;-76
2023/06/19 09:42:34;;;;;;;6.93;4.20;;;;;;;25.29;99.65;-18705.34;4950361;28;20155;-76
2023/06/19 09:45:05;;;;;;;7.00;4.67;;;;;;;25.36;96.21;-18707.09;4953587;28;20082;-77
2023/06/19 09:47:51;;;;;;;5.97;4.22;;;;;;;25.30;98.59;-18705.63;4953763;28;20445;-77
2023/06/19 09:50:17;;;;;;;6.72;4.32;;;;;;;25.24;99.18;-18704.00;4949201;28;20039;-78
2023/06/19 09:52:44;;;;;;;6.05;3.95;;;;;;;25.19;100.00;-18702.78;4952737;28;20047;-76
2023/06/19 09:55:14;;;;;;;8.70;4.97;;;;;;;25.22;100.00;-18703.44;4953765;28;20043;-78
2023/06/19 09:57:41;;;;;;;9.68;5.57;;;;;;;25.22;100.00;-18703.44;4953278;28;20039;-77
2023/06/19 10:00:18;;;;;;;6.90;4.93;;;;;;;25.55;100.00;-18712.09;4953774;28;20055;-76
2023/06/19 10:02:46;;;;;;;7.07;4.80;;;;;;;25.40;100.00;-18708.19;4955619;28;20042;-78
2023/06/19 10:05:13;;;;;;;8.02;5.45;;;;;;;25.35;96.91;-18706.84;4952207;28;20043;-77
2023/06/19 10:07:41;;;;;;;10.30;6.15;;;;;;;25.31;90.97;-18705.88;4951880;28;20047;-78
2023/06/19 10:10:09;;;;;;;7.55;5.25;;;;;;;25.53;88.26;-18711.56;4957162;28;20083;-78
2023/06/19 10:12:46;;;;;;;10.63;6.80;;;;;;;25.58;85.98;-18713.06;4953718;28;20074;-77
2023/06/19 10:15:19;;;;;;;8.27;6.63;;;;;;;25.70;82.37;-18716.03;4950517;28;20394;-78
2023/06/19 10:17:47;;;;;;;7.47;5.78;;;;;;;25.88;76.29;-18720.91;4953858;28;20073;-78
2023/06/19 10:20:22;;;;;;;8.40;6.13;;;;;;;26.07;78.37;-18725.91;4952302;28;20051;-78
2023/06/19 10:22:52;;;;;;;8.40;6.68;;;;;;;26.07;76.40;-18726.06;4951954;28;20047;-77
2023/06/19 10:25:22;;;;;;;8.63;6.57;;;;;;;26.22;81.17;-18729.97;4954530;28;20039;-78
2023/06/19 10:27:47;;;;;;;10.80;7.32;;;;;;;26.34;83.22;-18733.06;4952823;28;20051;-78
2023/06/19 10:30:19;;;;;;;10.93;8.30;;;;;;;26.40;80.05;-18734.69;4951372;28;20047;-78
2023/06/19 10:32:48;;;;;;;8.95;7.60;;;;;;;26.55;74.40;-18738.75;4952568;28;20267;-77
2023/06/19 10:35:15;;;;;;;8.73;6.60;;;;;;;26.50;74.74;-18737.41;4951554;28;20533;-78
2023/06/19 10:37:41;;;;;;;11.68;6.70;;;;;;;26.59;67.11;-18739.72;4952110;28;20173;-77
2023/06/19 10:40:09;;;;;;;8.90;7.03;;;;;;;26.67;70.54;-18741.88;4953390;28;20051;-76
2023/06/19 10:42:37;;;;;;;10.32;8.63;;;;;;;26.66;73.43;-18741.59;4950797;28;20066;-77
2023/06/19 10:45:06;;;;;;;8.70;7.43;;;;;;;26.71;74.99;-18742.94;4953122;28;20050;-78
2023/06/19 10:47:33;;;;;;;11.85;7.63;;;;;;;26.80;74.13;-18745.09;4953627;28;20058;-77
2023/06/19 10:49:58;;;;;;;9.88;7.82;;;;;;;26.72;73.59;-18743.22;4951339;28;20042;-77
2023/06/19 10:52:24;;;;;;;9.10;7.82;;;;;;;26.72;74.73;-18743.22;4967100;28;20454;-78
2023/06/19 10:54:54;;;;;;;9.98;8.75;;;;;;;26.62;71.70;-18740.50;4951551;28;20051;-78
2023/06/19 10:57:27;;;;;;;10.02;7.88;;;;;;;26.44;74.02;-18735.66;4950176;28;20053;-78
2023/06/19 10:59:53;;;;;;;12.35;9.70;;;;;;;26.40;75.69;-18734.69;4967874;28;20073;-79
2023/06/19 11:02:18;;;;;;;10.45;9.30;;;;;;;26.32;76.24;-18732.53;4951339;28;20035;-79
2023/06/19 11:04:44;;;;;;;10.88;9.38;;;;;;;26.33;77.22;-18732.94;4952046;28;20175;-77
2023/06/19 11:07:09;;;;;;;11.70;9.32;;;;;;;26.43;77.21;-18735.50;4951953;28;20047;-77
2023/06/19 11:09:35;;;;;;;13.32;10.05;;;;;;;26.40;78.92;-18734.56;4948519;28;20504;-78
2023/06/19 11:12:01;;;;;;;11.95;8.52;;;;;;;26.53;78.37;-18738.09;4953182;28;20043;-78
2023/06/19 11:14:29;;;;;;;11.38;9.68;;;;;;;26.70;74.58;-18742.69;4954150;28;20051;-77
2023/06/19 11:16:55;;;;;;;;;;;;;;;26.75;74.83;-18743.88;4953740;28;20091;-78
2023/06/19 11:19:22;;;;;;;9.32;7.72;;;;;;;26.47;70.43;-18736.44;4951794;28;19926;-77